sensor_id;sensor_type;location;lat;lon;timestamp;temperature;humidity
40670;DHT22;26355;45.528;9.234;2022-07-06T00:01:06;29.90;82.30
40670;DHT22;26355;45.528;9.234;2022-07-06T00:03:32;30.00;82.40
40670;DHT22;26355;45.528;9.234;2022-07-06T00:05:57;29.90;82.50
40670;DHT22;26355;45.528;9.234;2022-07-06T00:08:23;29.90;82.10
40670;DHT22;26355;45.528;9.234;2022-07-06T00:10:49;29.80;82.10
40670;DHT22;26355;45.528;9.234;2022-07-06T00:13:14;29.80;82.20
40670;DHT22;26355;45.528;9.234;2022-07-06T00:15:40;29.80;82.20
40670;DHT22;26355;45.528;9.234;2022-07-06T00:18:06;29.80;82.10
40670;DHT22;26355;45.528;9.234;2022-07-06T00:20:31;29.80;82.00
40670;DHT22;26355;45.528;9.234;2022-07-06T00:22:57;29.80;81.80
40670;DHT22;26355;45.528;9.234;2022-07-06T00:25:23;29.80;81.80
40670;DHT22;26355;45.528;9.234;2022-07-06T00:27:48;29.90;81.60
40670;DHT22;26355;45.528;9.234;2022-07-06T00:30:14;29.90;81.40
40670;DHT22;26355;45.528;9.234;2022-07-06T00:32:40;29.80;81.30
40670;DHT22;26355;45.528;9.234;2022-07-06T00:35:06;29.70;81.30
40670;DHT22;26355;45.528;9.234;2022-07-06T00:37:32;29.80;81.40
40670;DHT22;26355;45.528;9.234;2022-07-06T00:39:57;29.80;81.20
40670;DHT22;26355;45.528;9.234;2022-07-06T00:42:23;29.80;81.20
40670;DHT22;26355;45.528;9.234;2022-07-06T00:44:50;29.80;81.10
40670;DHT22;26355;45.528;9.234;2022-07-06T00:47:15;29.70;81.10
40670;DHT22;26355;45.528;9.234;2022-07-06T00:49:41;29.70;81.10
40670;DHT22;26355;45.528;9.234;2022-07-06T00:52:25;29.60;81.10
40670;DHT22;26355;45.528;9.234;2022-07-06T00:54:51;29.50;81.30
40670;DHT22;26355;45.528;9.234;2022-07-06T00:57:17;29.60;81.30
40670;DHT22;26355;45.528;9.234;2022-07-06T00:59:43;29.60;81.30
40670;DHT22;26355;45.528;9.234;2022-07-06T01:02:09;29.50;81.30
40670;DHT22;26355;45.528;9.234;2022-07-06T01:04:35;29.50;81.40
40670;DHT22;26355;45.528;9.234;2022-07-06T01:07:01;29.50;81.40
40670;DHT22;26355;45.528;9.234;2022-07-06T01:09:27;29.40;81.40
40670;DHT22;26355;45.528;9.234;2022-07-06T01:11:52;29.40;81.40
40670;DHT22;26355;45.528;9.234;2022-07-06T01:14:19;29.40;81.50
40670;DHT22;26355;45.528;9.234;2022-07-06T01:16:45;29.40;81.60
40670;DHT22;26355;45.528;9.234;2022-07-06T01:19:11;29.40;81.60
40670;DHT22;26355;45.528;9.234;2022-07-06T01:21:39;29.40;81.60
40670;DHT22;26355;45.528;9.234;2022-07-06T01:24:05;29.30;81.70
40670;DHT22;26355;45.528;9.234;2022-07-06T01:26:31;29.40;81.60
40670;DHT22;26355;45.528;9.234;2022-07-06T01:28:57;29.30;81.60
40670;DHT22;26355;45.528;9.234;2022-07-06T01:31:26;29.20;81.50
40670;DHT22;26355;45.528;9.234;2022-07-06T01:33:53;29.20;81.40
40670;DHT22;26355;45.528;9.234;2022-07-06T01:36:20;29.20;81.40
40670;DHT22;26355;45.528;9.234;2022-07-06T01:38:51;29.20;81.30
40670;DHT22;26355;45.528;9.234;2022-07-06T01:41:17;29.20;81.30
40670;DHT22;26355;45.528;9.234;2022-07-06T01:43:44;29.20;81.20
40670;DHT22;26355;45.528;9.234;2022-07-06T01:46:10;29.10;81.20
40670;DHT22;26355;45.528;9.234;2022-07-06T01:48:36;29.10;81.30
40670;DHT22;26355;45.528;9.234;2022-07-06T01:51:02;29.10;81.20
40670;DHT22;26355;45.528;9.234;2022-07-06T01:53:28;29.10;81.20
40670;DHT22;26355;45.528;9.234;2022-07-06T01:55:53;29.00;81.20
40670;DHT22;26355;45.528;9.234;2022-07-06T01:58:19;28.90;81.20
40670;DHT22;26355;45.528;9.234;2022-07-06T02:00:44;28.90;81.30
40670;DHT22;26355;45.528;9.234;2022-07-06T02:03:10;28.90;81.30
40670;DHT22;26355;45.528;9.234;2022-07-06T02:05:35;28.90;81.30
40670;DHT22;26355;45.528;9.234;2022-07-06T02:08:01;29.10;81.20
40670;DHT22;26355;45.528;9.234;2022-07-06T02:10:27;29.10;81.00
40670;DHT22;26355;45.528;9.234;2022-07-06T02:12:52;29.20;80.90
40670;DHT22;26355;45.528;9.234;2022-07-06T02:15:18;29.10;80.80
40670;DHT22;26355;45.528;9.234;2022-07-06T02:17:43;29.20;80.70
40670;DHT22;26355;45.528;9.234;2022-07-06T02:20:09;29.10;80.70
40670;DHT22;26355;45.528;9.234;2022-07-06T02:22:35;29.10;80.90
40670;DHT22;26355;45.528;9.234;2022-07-06T02:25:01;29.10;81.00
40670;DHT22;26355;45.528;9.234;2022-07-06T02:27:26;29.00;81.10
40670;DHT22;26355;45.528;9.234;2022-07-06T02:29:52;29.00;81.10
40670;DHT22;26355;45.528;9.234;2022-07-06T02:32:18;28.90;81.20
40670;DHT22;26355;45.528;9.234;2022-07-06T02:34:43;29.00;81.40
40670;DHT22;26355;45.528;9.234;2022-07-06T02:37:09;29.00;81.30
40670;DHT22;26355;45.528;9.234;2022-07-06T02:39:35;29.00;81.30
40670;DHT22;26355;45.528;9.234;2022-07-06T02:42:00;29.10;81.30
40670;DHT22;26355;45.528;9.234;2022-07-06T02:44:26;29.10;81.20
40670;DHT22;26355;45.528;9.234;2022-07-06T02:46:52;29.20;81.10
40670;DHT22;26355;45.528;9.234;2022-07-06T02:49:17;29.20;81.00
40670;DHT22;26355;45.528;9.234;2022-07-06T02:51:43;29.10;81.00
40670;DHT22;26355;45.528;9.234;2022-07-06T02:54:08;29.10;81.00
40670;DHT22;26355;45.528;9.234;2022-07-06T02:56:34;29.10;81.00
40670;DHT22;26355;45.528;9.234;2022-07-06T02:59:00;29.10;81.10
40670;DHT22;26355;45.528;9.234;2022-07-06T03:01:25;29.10;81.20
40670;DHT22;26355;45.528;9.234;2022-07-06T03:03:51;29.00;81.20
40670;DHT22;26355;45.528;9.234;2022-07-06T03:06:17;28.90;81.20
40670;DHT22;26355;45.528;9.234;2022-07-06T03:08:42;28.80;81.10
40670;DHT22;26355;45.528;9.234;2022-07-06T03:11:08;28.80;81.10
40670;DHT22;26355;45.528;9.234;2022-07-06T03:13:35;28.70;81.40
40670;DHT22;26355;45.528;9.234;2022-07-06T03:16:01;28.70;81.50
40670;DHT22;26355;45.528;9.234;2022-07-06T03:18:26;28.60;82.20
40670;DHT22;26355;45.528;9.234;2022-07-06T03:20:52;28.50;82.30
40670;DHT22;26355;45.528;9.234;2022-07-06T03:23:18;28.60;83.20
40670;DHT22;26355;45.528;9.234;2022-07-06T03:25:44;28.50;83.00
40670;DHT22;26355;45.528;9.234;2022-07-06T03:28:10;28.20;84.20
40670;DHT22;26355;45.528;9.234;2022-07-06T03:30:36;28.10;84.30
40670;DHT22;26355;45.528;9.234;2022-07-06T03:33:01;28.20;85.30
40670;DHT22;26355;45.528;9.234;2022-07-06T03:35:27;28.20;84.70
40670;DHT22;26355;45.528;9.234;2022-07-06T03:37:52;28.20;84.70
40670;DHT22;26355;45.528;9.234;2022-07-06T03:40:18;28.10;85.00
40670;DHT22;26355;45.528;9.234;2022-07-06T03:42:44;28.00;85.20
40670;DHT22;26355;45.528;9.234;2022-07-06T03:45:10;28.10;85.30
40670;DHT22;26355;45.528;9.234;2022-07-06T03:47:36;28.00;85.50
40670;DHT22;26355;45.528;9.234;2022-07-06T03:50:02;27.90;85.80
40670;DHT22;26355;45.528;9.234;2022-07-06T03:52:27;27.80;85.90
40670;DHT22;26355;45.528;9.234;2022-07-06T03:54:53;27.70;86.10
40670;DHT22;26355;45.528;9.234;2022-07-06T03:57:19;27.70;86.10
40670;DHT22;26355;45.528;9.234;2022-07-06T03:59:44;27.50;86.20
40670;DHT22;26355;45.528;9.234;2022-07-06T04:02:10;27.40;86.30
40670;DHT22;26355;45.528;9.234;2022-07-06T04:04:35;27.40;86.30
40670;DHT22;26355;45.528;9.234;2022-07-06T04:07:01;27.50;86.20
40670;DHT22;26355;45.528;9.234;2022-07-06T04:09:27;27.40;86.20
40670;DHT22;26355;45.528;9.234;2022-07-06T04:11:52;27.40;86.30
40670;DHT22;26355;45.528;9.234;2022-07-06T04:14:18;27.30;86.60
40670;DHT22;26355;45.528;9.234;2022-07-06T04:16:44;27.20;86.80
40670;DHT22;26355;45.528;9.234;2022-07-06T04:19:09;27.20;86.90
40670;DHT22;26355;45.528;9.234;2022-07-06T04:21:35;27.20;86.90
40670;DHT22;26355;45.528;9.234;2022-07-06T04:24:01;27.10;87.10
40670;DHT22;26355;45.528;9.234;2022-07-06T04:26:26;27.10;87.10
40670;DHT22;26355;45.528;9.234;2022-07-06T04:28:52;27.10;87.00
40670;DHT22;26355;45.528;9.234;2022-07-06T04:31:18;27.00;87.20
40670;DHT22;26355;45.528;9.234;2022-07-06T04:33:43;27.00;87.10
40670;DHT22;26355;45.528;9.234;2022-07-06T04:36:12;27.10;87.20
40670;DHT22;26355;45.528;9.234;2022-07-06T04:38:38;27.00;87.50
40670;DHT22;26355;45.528;9.234;2022-07-06T04:41:03;26.90;87.50
40670;DHT22;26355;45.528;9.234;2022-07-06T04:43:29;26.80;87.90
40670;DHT22;26355;45.528;9.234;2022-07-06T04:45:55;26.80;88.00
40670;DHT22;26355;45.528;9.234;2022-07-06T04:48:20;26.80;88.20
40670;DHT22;26355;45.528;9.234;2022-07-06T04:50:46;26.80;88.20
40670;DHT22;26355;45.528;9.234;2022-07-06T04:53:11;26.80;88.10
40670;DHT22;26355;45.528;9.234;2022-07-06T04:55:37;26.70;88.60
40670;DHT22;26355;45.528;9.234;2022-07-06T04:58:03;26.70;88.70
40670;DHT22;26355;45.528;9.234;2022-07-06T05:00:28;26.80;88.90
40670;DHT22;26355;45.528;9.234;2022-07-06T05:02:54;26.70;88.90
40670;DHT22;26355;45.528;9.234;2022-07-06T05:05:20;26.80;88.90
40670;DHT22;26355;45.528;9.234;2022-07-06T05:07:46;26.80;89.20
40670;DHT22;26355;45.528;9.234;2022-07-06T05:10:11;26.80;89.00
40670;DHT22;26355;45.528;9.234;2022-07-06T05:12:38;26.80;89.10
40670;DHT22;26355;45.528;9.234;2022-07-06T05:15:04;26.80;89.30
40670;DHT22;26355;45.528;9.234;2022-07-06T05:17:30;26.80;89.30
40670;DHT22;26355;45.528;9.234;2022-07-06T05:19:56;26.80;89.50
40670;DHT22;26355;45.528;9.234;2022-07-06T05:22:22;26.80;89.70
40670;DHT22;26355;45.528;9.234;2022-07-06T05:24:47;26.80;89.60
40670;DHT22;26355;45.528;9.234;2022-07-06T05:27:13;26.80;89.80
40670;DHT22;26355;45.528;9.234;2022-07-06T05:29:38;26.80;89.80
40670;DHT22;26355;45.528;9.234;2022-07-06T05:32:04;26.80;89.90
40670;DHT22;26355;45.528;9.234;2022-07-06T05:34:30;26.90;89.90
40670;DHT22;26355;45.528;9.234;2022-07-06T05:36:56;26.80;90.00
40670;DHT22;26355;45.528;9.234;2022-07-06T05:39:21;26.80;90.00
40670;DHT22;26355;45.528;9.234;2022-07-06T05:41:48;26.80;90.10
40670;DHT22;26355;45.528;9.234;2022-07-06T05:44:14;26.80;90.10
40670;DHT22;26355;45.528;9.234;2022-07-06T05:46:40;26.80;90.10
40670;DHT22;26355;45.528;9.234;2022-07-06T05:49:05;26.80;90.30
40670;DHT22;26355;45.528;9.234;2022-07-06T05:51:49;26.70;90.40
40670;DHT22;26355;45.528;9.234;2022-07-06T05:54:15;26.60;90.40
40670;DHT22;26355;45.528;9.234;2022-07-06T05:56:41;26.70;90.50
40670;DHT22;26355;45.528;9.234;2022-07-06T05:59:07;26.80;90.50
40670;DHT22;26355;45.528;9.234;2022-07-06T06:01:36;26.80;90.40
40670;DHT22;26355;45.528;9.234;2022-07-06T06:04:01;26.80;90.40
40670;DHT22;26355;45.528;9.234;2022-07-06T06:06:27;26.80;90.30
40670;DHT22;26355;45.528;9.234;2022-07-06T06:08:53;26.90;90.40
40670;DHT22;26355;45.528;9.234;2022-07-06T06:11:18;26.90;90.40
40670;DHT22;26355;45.528;9.234;2022-07-06T06:13:44;26.80;90.40
40670;DHT22;26355;45.528;9.234;2022-07-06T06:16:09;26.90;90.40
40670;DHT22;26355;45.528;9.234;2022-07-06T06:18:35;27.20;90.20
40670;DHT22;26355;45.528;9.234;2022-07-06T06:21:01;27.30;90.10
40670;DHT22;26355;45.528;9.234;2022-07-06T06:23:27;27.30;90.00
40670;DHT22;26355;45.528;9.234;2022-07-06T06:25:52;27.50;89.70
40670;DHT22;26355;45.528;9.234;2022-07-06T06:28:18;27.70;89.60
40670;DHT22;26355;45.528;9.234;2022-07-06T06:30:43;27.80;88.80
40670;DHT22;26355;45.528;9.234;2022-07-06T06:33:19;27.70;88.20
40670;DHT22;26355;45.528;9.234;2022-07-06T06:35:50;27.90;87.70
40670;DHT22;26355;45.528;9.234;2022-07-06T06:38:17;27.90;87.70
40670;DHT22;26355;45.528;9.234;2022-07-06T06:40:43;28.00;87.40
40670;DHT22;26355;45.528;9.234;2022-07-06T06:43:09;27.90;87.40
40670;DHT22;26355;45.528;9.234;2022-07-06T06:45:35;27.90;87.40
40670;DHT22;26355;45.528;9.234;2022-07-06T06:48:00;27.90;87.70
40670;DHT22;26355;45.528;9.234;2022-07-06T06:50:26;27.90;87.70
40670;DHT22;26355;45.528;9.234;2022-07-06T06:52:52;28.00;87.40
40670;DHT22;26355;45.528;9.234;2022-07-06T06:55:18;28.00;87.10
40670;DHT22;26355;45.528;9.234;2022-07-06T06:57:44;28.10;87.00
40670;DHT22;26355;45.528;9.234;2022-07-06T07:00:11;28.10;87.10
40670;DHT22;26355;45.528;9.234;2022-07-06T07:02:37;28.20;86.70
40670;DHT22;26355;45.528;9.234;2022-07-06T07:05:04;28.40;86.60
40670;DHT22;26355;45.528;9.234;2022-07-06T07:07:30;28.40;86.70
40670;DHT22;26355;45.528;9.234;2022-07-06T07:09:55;28.40;86.50
40670;DHT22;26355;45.528;9.234;2022-07-06T07:12:21;28.50;86.40
40670;DHT22;26355;45.528;9.234;2022-07-06T07:14:46;28.60;86.00
40670;DHT22;26355;45.528;9.234;2022-07-06T07:17:13;28.70;86.10
40670;DHT22;26355;45.528;9.234;2022-07-06T07:19:39;28.80;85.80
40670;DHT22;26355;45.528;9.234;2022-07-06T07:22:05;28.80;85.50
40670;DHT22;26355;45.528;9.234;2022-07-06T07:24:30;28.90;86.10
40670;DHT22;26355;45.528;9.234;2022-07-06T07:26:56;29.10;85.50
40670;DHT22;26355;45.528;9.234;2022-07-06T07:29:22;29.10;85.30
40670;DHT22;26355;45.528;9.234;2022-07-06T07:31:47;29.20;85.20
40670;DHT22;26355;45.528;9.234;2022-07-06T07:34:13;29.30;85.20
40670;DHT22;26355;45.528;9.234;2022-07-06T07:36:39;29.20;84.90
40670;DHT22;26355;45.528;9.234;2022-07-06T07:39:04;29.30;84.90
40670;DHT22;26355;45.528;9.234;2022-07-06T07:41:30;29.30;84.90
40670;DHT22;26355;45.528;9.234;2022-07-06T07:43:56;29.30;84.90
40670;DHT22;26355;45.528;9.234;2022-07-06T07:46:22;29.40;85.00
40670;DHT22;26355;45.528;9.234;2022-07-06T07:48:47;29.50;84.80
40670;DHT22;26355;45.528;9.234;2022-07-06T07:51:13;29.50;84.60
40670;DHT22;26355;45.528;9.234;2022-07-06T07:53:39;29.50;85.00
40670;DHT22;26355;45.528;9.234;2022-07-06T07:56:04;29.40;85.00
40670;DHT22;26355;45.528;9.234;2022-07-06T07:58:30;29.40;85.00
40670;DHT22;26355;45.528;9.234;2022-07-06T08:00:55;29.50;85.00
40670;DHT22;26355;45.528;9.234;2022-07-06T08:03:21;29.50;84.80
40670;DHT22;26355;45.528;9.234;2022-07-06T08:05:47;29.40;85.20
40670;DHT22;26355;45.528;9.234;2022-07-06T08:08:14;29.40;85.50
40670;DHT22;26355;45.528;9.234;2022-07-06T08:10:40;29.40;85.40
40670;DHT22;26355;45.528;9.234;2022-07-06T08:13:06;29.50;85.40
40670;DHT22;26355;45.528;9.234;2022-07-06T08:15:35;29.50;85.60
40670;DHT22;26355;45.528;9.234;2022-07-06T08:18:01;29.60;85.40
40670;DHT22;26355;45.528;9.234;2022-07-06T08:20:26;29.50;85.20
40670;DHT22;26355;45.528;9.234;2022-07-06T08:22:52;29.50;85.10
40670;DHT22;26355;45.528;9.234;2022-07-06T08:25:18;29.50;85.00
40670;DHT22;26355;45.528;9.234;2022-07-06T08:27:43;29.50;85.10
40670;DHT22;26355;45.528;9.234;2022-07-06T08:30:10;29.50;84.90
40670;DHT22;26355;45.528;9.234;2022-07-06T08:32:40;29.60;84.80
40670;DHT22;26355;45.528;9.234;2022-07-06T08:35:06;29.70;84.90
40670;DHT22;26355;45.528;9.234;2022-07-06T08:37:32;29.70;84.90
40670;DHT22;26355;45.528;9.234;2022-07-06T08:39:58;29.70;84.90
40670;DHT22;26355;45.528;9.234;2022-07-06T08:42:29;29.80;84.90
40670;DHT22;26355;45.528;9.234;2022-07-06T08:44:57;29.90;84.60
40670;DHT22;26355;45.528;9.234;2022-07-06T08:47:25;30.00;84.50
40670;DHT22;26355;45.528;9.234;2022-07-06T08:49:51;30.00;84.00
40670;DHT22;26355;45.528;9.234;2022-07-06T08:52:18;30.00;83.90
40670;DHT22;26355;45.528;9.234;2022-07-06T08:54:44;30.10;83.90
40670;DHT22;26355;45.528;9.234;2022-07-06T08:57:10;30.10;83.10
40670;DHT22;26355;45.528;9.234;2022-07-06T08:59:38;30.10;82.90
40670;DHT22;26355;45.528;9.234;2022-07-06T09:02:04;30.20;82.80
40670;DHT22;26355;45.528;9.234;2022-07-06T09:04:29;30.20;82.70
40670;DHT22;26355;45.528;9.234;2022-07-06T09:06:57;30.10;82.50
40670;DHT22;26355;45.528;9.234;2022-07-06T09:09:24;30.20;82.00
40670;DHT22;26355;45.528;9.234;2022-07-06T09:11:50;30.20;81.80
40670;DHT22;26355;45.528;9.234;2022-07-06T09:14:17;30.30;81.50
40670;DHT22;26355;45.528;9.234;2022-07-06T09:16:45;30.30;81.10
40670;DHT22;26355;45.528;9.234;2022-07-06T09:19:12;30.30;81.10
40670;DHT22;26355;45.528;9.234;2022-07-06T09:21:38;30.20;81.20
40670;DHT22;26355;45.528;9.234;2022-07-06T09:24:10;30.20;81.30
40670;DHT22;26355;45.528;9.234;2022-07-06T09:26:36;30.30;81.20
40670;DHT22;26355;45.528;9.234;2022-07-06T09:29:04;30.30;81.30
40670;DHT22;26355;45.528;9.234;2022-07-06T09:31:29;30.30;81.00
40670;DHT22;26355;45.528;9.234;2022-07-06T09:33:59;30.30;80.80
40670;DHT22;26355;45.528;9.234;2022-07-06T09:39:23;30.40;80.60
40670;DHT22;26355;45.528;9.234;2022-07-06T09:41:54;30.40;80.70
40670;DHT22;26355;45.528;9.234;2022-07-06T09:44:23;30.50;80.70
40670;DHT22;26355;45.528;9.234;2022-07-06T09:46:50;30.60;80.00
40670;DHT22;26355;45.528;9.234;2022-07-06T09:49:20;30.60;79.30
40670;DHT22;26355;45.528;9.234;2022-07-06T09:51:50;30.70;79.40
40670;DHT22;26355;45.528;9.234;2022-07-06T09:54:17;30.80;78.80
40670;DHT22;26355;45.528;9.234;2022-07-06T09:56:45;30.80;79.10
40670;DHT22;26355;45.528;9.234;2022-07-06T09:59:16;30.90;79.20
40670;DHT22;26355;45.528;9.234;2022-07-06T10:01:42;30.90;79.20
40670;DHT22;26355;45.528;9.234;2022-07-06T10:04:09;30.80;80.10
40670;DHT22;26355;45.528;9.234;2022-07-06T10:06:36;30.90;79.20
40670;DHT22;26355;45.528;9.234;2022-07-06T10:09:05;30.90;79.20
40670;DHT22;26355;45.528;9.234;2022-07-06T10:11:34;30.90;79.00
40670;DHT22;26355;45.528;9.234;2022-07-06T10:14:03;30.90;78.60
40670;DHT22;26355;45.528;9.234;2022-07-06T10:16:29;31.00;78.80
40670;DHT22;26355;45.528;9.234;2022-07-06T10:18:54;30.90;78.40
40670;DHT22;26355;45.528;9.234;2022-07-06T10:21:22;31.10;78.80
40670;DHT22;26355;45.528;9.234;2022-07-06T10:23:51;31.00;78.90
40670;DHT22;26355;45.528;9.234;2022-07-06T10:26:18;30.80;79.50
40670;DHT22;26355;45.528;9.234;2022-07-06T10:28:44;30.80;79.30
40670;DHT22;26355;45.528;9.234;2022-07-06T10:31:13;30.90;79.50
40670;DHT22;26355;45.528;9.234;2022-07-06T10:33:38;31.00;79.30
40670;DHT22;26355;45.528;9.234;2022-07-06T10:36:05;31.00;79.10
40670;DHT22;26355;45.528;9.234;2022-07-06T10:38:35;31.00;79.10
40670;DHT22;26355;45.528;9.234;2022-07-06T10:41:05;31.20;79.10
40670;DHT22;26355;45.528;9.234;2022-07-06T10:43:47;31.20;78.80
40670;DHT22;26355;45.528;9.234;2022-07-06T10:46:17;31.30;78.40
40670;DHT22;26355;45.528;9.234;2022-07-06T10:48:47;31.50;79.00
40670;DHT22;26355;45.528;9.234;2022-07-06T10:51:25;31.60;77.80
40670;DHT22;26355;45.528;9.234;2022-07-06T10:54:04;31.60;76.90
40670;DHT22;26355;45.528;9.234;2022-07-06T10:56:39;31.70;77.00
40670;DHT22;26355;45.528;9.234;2022-07-06T10:59:13;31.60;77.10
40670;DHT22;26355;45.528;9.234;2022-07-06T11:01:39;31.70;77.00
40670;DHT22;26355;45.528;9.234;2022-07-06T11:04:07;31.70;77.20
40670;DHT22;26355;45.528;9.234;2022-07-06T11:06:35;31.80;77.30
40670;DHT22;26355;45.528;9.234;2022-07-06T11:09:08;31.80;77.40
40670;DHT22;26355;45.528;9.234;2022-07-06T11:14:07;31.80;77.20
40670;DHT22;26355;45.528;9.234;2022-07-06T11:19:12;31.80;76.80
40670;DHT22;26355;45.528;9.234;2022-07-06T11:24:09;31.60;76.40
40670;DHT22;26355;45.528;9.234;2022-07-06T11:26:36;31.70;76.20
40670;DHT22;26355;45.528;9.234;2022-07-06T11:29:06;31.60;76.10
40670;DHT22;26355;45.528;9.234;2022-07-06T11:31:34;31.60;76.40
40670;DHT22;26355;45.528;9.234;2022-07-06T11:34:03;31.60;76.40
40670;DHT22;26355;45.528;9.234;2022-07-06T11:36:29;31.70;76.10
40670;DHT22;26355;45.528;9.234;2022-07-06T11:38:54;31.80;76.20
40670;DHT22;26355;45.528;9.234;2022-07-06T11:41:20;31.70;76.30
40670;DHT22;26355;45.528;9.234;2022-07-06T11:43:47;31.70;76.40
40670;DHT22;26355;45.528;9.234;2022-07-06T11:46:23;31.70;76.00
40670;DHT22;26355;45.528;9.234;2022-07-06T11:48:50;31.70;75.30
40670;DHT22;26355;45.528;9.234;2022-07-06T11:51:15;31.80;75.10
40670;DHT22;26355;45.528;9.234;2022-07-06T11:53:53;31.70;74.50
40670;DHT22;26355;45.528;9.234;2022-07-06T11:56:19;31.80;75.00
40670;DHT22;26355;45.528;9.234;2022-07-06T11:58:49;31.80;74.70
40670;DHT22;26355;45.528;9.234;2022-07-06T12:01:15;31.90;74.20
40670;DHT22;26355;45.528;9.234;2022-07-06T12:03:42;31.90;74.00
40670;DHT22;26355;45.528;9.234;2022-07-06T12:06:20;31.90;74.10
40670;DHT22;26355;45.528;9.234;2022-07-06T12:08:47;32.00;74.00
40670;DHT22;26355;45.528;9.234;2022-07-06T12:11:24;32.20;74.20
40670;DHT22;26355;45.528;9.234;2022-07-06T12:13:51;32.10;72.80
40670;DHT22;26355;45.528;9.234;2022-07-06T12:16:18;32.10;72.70
40670;DHT22;26355;45.528;9.234;2022-07-06T12:18:46;32.00;72.20
40670;DHT22;26355;45.528;9.234;2022-07-06T12:21:14;32.00;72.60
40670;DHT22;26355;45.528;9.234;2022-07-06T12:23:47;32.20;72.50
40670;DHT22;26355;45.528;9.234;2022-07-06T12:26:18;32.30;72.00
40670;DHT22;26355;45.528;9.234;2022-07-06T12:28:44;32.30;71.60
40670;DHT22;26355;45.528;9.234;2022-07-06T12:31:11;32.30;71.50
40670;DHT22;26355;45.528;9.234;2022-07-06T12:33:37;32.30;71.60
40670;DHT22;26355;45.528;9.234;2022-07-06T12:36:13;32.50;71.90
40670;DHT22;26355;45.528;9.234;2022-07-06T12:38:46;32.60;71.80
40670;DHT22;26355;45.528;9.234;2022-07-06T12:41:28;32.70;72.10
40670;DHT22;26355;45.528;9.234;2022-07-06T12:44:05;32.80;71.20
40670;DHT22;26355;45.528;9.234;2022-07-06T12:46:41;32.90;70.50
40670;DHT22;26355;45.528;9.234;2022-07-06T12:49:21;33.00;70.80
40670;DHT22;26355;45.528;9.234;2022-07-06T12:51:53;33.00;69.80
40670;DHT22;26355;45.528;9.234;2022-07-06T12:54:19;33.10;70.40
40670;DHT22;26355;45.528;9.234;2022-07-06T12:57:06;33.00;70.80
40670;DHT22;26355;45.528;9.234;2022-07-06T12:59:34;32.70;70.80
40670;DHT22;26355;45.528;9.234;2022-07-06T13:02:00;32.70;71.00
40670;DHT22;26355;45.528;9.234;2022-07-06T13:04:29;32.70;71.10
40670;DHT22;26355;45.528;9.234;2022-07-06T13:06:57;32.80;70.50
40670;DHT22;26355;45.528;9.234;2022-07-06T13:09:23;32.90;70.80
40670;DHT22;26355;45.528;9.234;2022-07-06T13:11:49;32.90;70.70
40670;DHT22;26355;45.528;9.234;2022-07-06T13:14:16;33.00;70.10
40670;DHT22;26355;45.528;9.234;2022-07-06T13:16:43;32.80;69.70
40670;DHT22;26355;45.528;9.234;2022-07-06T13:19:08;32.90;69.70
40670;DHT22;26355;45.528;9.234;2022-07-06T13:21:34;32.80;70.20
40670;DHT22;26355;45.528;9.234;2022-07-06T13:24:00;32.70;70.40
40670;DHT22;26355;45.528;9.234;2022-07-06T13:26:26;32.70;70.60
40670;DHT22;26355;45.528;9.234;2022-07-06T13:28:52;32.80;70.70
40670;DHT22;26355;45.528;9.234;2022-07-06T13:31:17;32.70;70.60
40670;DHT22;26355;45.528;9.234;2022-07-06T13:33:43;32.80;70.80
40670;DHT22;26355;45.528;9.234;2022-07-06T13:36:09;32.70;71.00
40670;DHT22;26355;45.528;9.234;2022-07-06T13:38:35;32.70;71.40
40670;DHT22;26355;45.528;9.234;2022-07-06T13:41:00;32.70;71.40
40670;DHT22;26355;45.528;9.234;2022-07-06T13:43:26;32.70;70.90
40670;DHT22;26355;45.528;9.234;2022-07-06T13:46:05;32.80;70.70
40670;DHT22;26355;45.528;9.234;2022-07-06T13:48:31;32.80;70.70
40670;DHT22;26355;45.528;9.234;2022-07-06T13:50:57;32.90;70.60
40670;DHT22;26355;45.528;9.234;2022-07-06T13:53:23;32.80;70.30
40670;DHT22;26355;45.528;9.234;2022-07-06T13:55:48;32.80;70.40
40670;DHT22;26355;45.528;9.234;2022-07-06T13:58:14;32.80;70.50
40670;DHT22;26355;45.528;9.234;2022-07-06T14:00:40;33.00;70.40
40670;DHT22;26355;45.528;9.234;2022-07-06T14:03:06;33.00;70.00
40670;DHT22;26355;45.528;9.234;2022-07-06T14:05:32;32.70;70.20
40670;DHT22;26355;45.528;9.234;2022-07-06T14:07:58;32.60;70.50
40670;DHT22;26355;45.528;9.234;2022-07-06T14:10:23;32.70;70.40
40670;DHT22;26355;45.528;9.234;2022-07-06T14:12:49;32.70;70.40
40670;DHT22;26355;45.528;9.234;2022-07-06T14:15:15;32.70;70.40
40670;DHT22;26355;45.528;9.234;2022-07-06T14:17:40;32.90;70.40
40670;DHT22;26355;45.528;9.234;2022-07-06T14:20:07;33.00;69.90
40670;DHT22;26355;45.528;9.234;2022-07-06T14:22:32;33.00;69.50
40670;DHT22;26355;45.528;9.234;2022-07-06T14:24:59;32.90;70.10
40670;DHT22;26355;45.528;9.234;2022-07-06T14:27:25;32.90;70.00
40670;DHT22;26355;45.528;9.234;2022-07-06T14:29:51;32.90;70.30
40670;DHT22;26355;45.528;9.234;2022-07-06T14:32:17;32.80;70.10
40670;DHT22;26355;45.528;9.234;2022-07-06T14:34:42;32.90;70.40
40670;DHT22;26355;45.528;9.234;2022-07-06T14:37:08;32.80;70.90
40670;DHT22;26355;45.528;9.234;2022-07-06T14:39:34;32.70;71.20
40670;DHT22;26355;45.528;9.234;2022-07-06T14:41:59;32.50;71.30
40670;DHT22;26355;45.528;9.234;2022-07-06T14:44:25;32.60;71.30
40670;DHT22;26355;45.528;9.234;2022-07-06T14:46:52;32.70;71.20
40670;DHT22;26355;45.528;9.234;2022-07-06T14:49:18;32.70;70.80
40670;DHT22;26355;45.528;9.234;2022-07-06T14:51:43;32.80;70.90
40670;DHT22;26355;45.528;9.234;2022-07-06T14:54:09;32.80;71.10
40670;DHT22;26355;45.528;9.234;2022-07-06T14:56:35;32.70;71.20
40670;DHT22;26355;45.528;9.234;2022-07-06T14:59:01;32.60;70.80
40670;DHT22;26355;45.528;9.234;2022-07-06T15:01:27;32.70;70.60
40670;DHT22;26355;45.528;9.234;2022-07-06T15:03:53;32.70;70.40
40670;DHT22;26355;45.528;9.234;2022-07-06T15:06:19;32.50;70.80
40670;DHT22;26355;45.528;9.234;2022-07-06T15:08:44;32.30;70.80
40670;DHT22;26355;45.528;9.234;2022-07-06T15:11:12;32.20;70.60
40670;DHT22;26355;45.528;9.234;2022-07-06T15:13:38;32.20;70.90
40670;DHT22;26355;45.528;9.234;2022-07-06T15:16:04;32.30;71.00
40670;DHT22;26355;45.528;9.234;2022-07-06T15:18:29;32.30;71.00
40670;DHT22;26355;45.528;9.234;2022-07-06T15:20:55;32.10;71.20
40670;DHT22;26355;45.528;9.234;2022-07-06T15:23:21;32.10;71.90
40670;DHT22;26355;45.528;9.234;2022-07-06T15:25:46;32.20;72.10
40670;DHT22;26355;45.528;9.234;2022-07-06T15:28:12;32.20;71.90
40670;DHT22;26355;45.528;9.234;2022-07-06T15:30:39;32.30;71.70
40670;DHT22;26355;45.528;9.234;2022-07-06T15:33:04;32.30;71.40
40670;DHT22;26355;45.528;9.234;2022-07-06T15:35:30;32.40;71.10
40670;DHT22;26355;45.528;9.234;2022-07-06T15:37:56;32.30;71.30